Texarkana, Texas
Current Conditions -  °F | °C
As of 9:53 PM on Thursday 18 Dec 2014 (Local Time) from KTXK Reporting Station
Haze Haze  
Wind Chill: 41°   Ceiling: 500
Heat Index: 45°   Visibility: 6mi
Dew Point: 43°   Wind: 7mph
Humidity: 93%   Direction: 50°NE
Pressure: 30.2"   Gusts: NA
Location:  33.43°N, 94.05°W
Report Text: KTXK 190353Z AUTO 05006KT 6SM BR OVC005 07/06 A3020 RMK AO2 SLP227 T00720061
Loading
Personal Weather Stations






























Interactive Weather Map New forecast layout! Learn more

10-Day Weather Forecast

Advertisements
Track Severe Weather on mobile